Accueil
METAR-TAF:

METAR-TAF

Aéroports :

Aéroport de Saint-Pierre Pierrefonds

Saint-Pierre, Réunion

latitude: 21-20S, longitude: 055-29E, altitude: 52 m

Observation

Le bulletin a été fait il y a 46 minutes, à 14:30 UTC
Vent 13 kt de est/sud-est
Température 21°C
Humidité 64%
Pression 1025 hPa
Visibilité 10 km ou plus
Quelques nuages à une hauteur de 3700 ft
Nuages fragmentés à une hauteur de 5200 ft

METAR: FMEP 031430Z AUTO 11013KT 9999 FEW037 BKN052 21/14 Q1025 BECMG 12023KT

Heure: 19:16 (15:16 UTC)

Prévision

Le bulletin a été fait il y a 4 heures et 16 minutes, à 11:00 UTC
Prévision valable du 03 à 12 UTC au 03 à 21 UTC
Vent 23 kt de est/sud-est
Visibilité 10 km ou plus
Quelques nuages à une hauteur de 3300 ft
Nuages épars à une hauteur de 4300 ft

TAF: FMEP 031100Z 0312/0321 12023KT 9999 FEW033 SCT043

Observations et prévisions météorologiques de plus de 4000 aéroports (messages METAR et TAF).

Les stations disponibles sont représentées par des disques jaunes et rouges sur la carte.

Passer la souris dessus pour voir le nom de la station.

Cliquer dessus pour voir les observations et prévisions météorologiques.

Pour changer de carte: cliquez sur les boutons verts avec une croix noire pour zoomer, sur le bouton vert avec un tiret pour effectuer un zoom arrière, ou sur les flèches vertes pour les cartes adjacentes.


METAR-TAF: